createdAt,value
2023-03-29T00:00:34.940Z,8.30
2023-03-29T00:03:24.730Z,10.80
2023-03-29T00:10:53.433Z,9.50
2023-03-29T00:12:55.182Z,8.90
2023-03-29T00:16:14.736Z,10.00
2023-03-29T00:18:37.161Z,12.80
2023-03-29T00:20:06.248Z,12.70
2023-03-29T00:23:01.677Z,13.10
2023-03-29T00:25:22.526Z,10.00
2023-03-29T00:26:52.213Z,12.50
2023-03-29T00:29:21.347Z,10.10
2023-03-29T00:34:29.001Z,9.20
2023-03-29T00:36:58.754Z,10.40
2023-03-29T00:39:33.779Z,11.00
2023-03-29T00:41:03.198Z,14.30
2023-03-29T00:42:29.961Z,10.30
2023-03-29T00:44:00.148Z,13.30
2023-03-29T00:50:54.157Z,11.10
2023-03-29T00:52:53.743Z,10.60
2023-03-29T00:56:12.216Z,13.20
2023-03-29T00:57:41.146Z,8.90
2023-03-29T00:59:41.163Z,11.20
2023-03-29T01:02:30.283Z,11.60
2023-03-29T01:05:22.751Z,11.20
2023-03-29T01:08:38.388Z,11.70
2023-03-29T01:11:05.755Z,10.10
2023-03-29T01:13:34.726Z,11.30
2023-03-29T01:17:52.547Z,9.00
2023-03-29T01:22:53.175Z,10.50
2023-03-29T01:24:23.227Z,10.60
2023-03-29T01:26:12.009Z,11.90
2023-03-29T01:27:40.875Z,11.80
2023-03-29T01:30:13.892Z,13.60
2023-03-29T01:31:44.937Z,11.90
2023-03-29T01:35:05.281Z,11.30
2023-03-29T01:36:32.269Z,12.00
2023-03-29T01:38:31.142Z,10.90
2023-03-29T01:41:32.152Z,12.60
2023-03-29T01:43:33.273Z,12.60
2023-03-29T01:46:03.236Z,13.00
2023-03-29T01:49:21.290Z,13.70
2023-03-29T01:52:15.142Z,11.20
2023-03-29T01:55:04.953Z,11.50
2023-03-29T01:59:09.273Z,15.00
2023-03-29T02:01:13.314Z,13.70
2023-03-29T02:04:14.968Z,14.10
2023-03-29T02:05:43.810Z,11.70
2023-03-29T02:10:12.173Z,11.50
2023-03-29T02:14:09.366Z,11.80
2023-03-29T02:17:01.357Z,10.90
2023-03-29T02:18:50.439Z,11.50
2023-03-29T02:25:44.384Z,12.50
2023-03-29T02:28:33.023Z,13.60
2023-03-29T02:30:24.091Z,10.90
2023-03-29T02:33:21.686Z,11.20
2023-03-29T02:37:14.366Z,9.40
2023-03-29T02:39:11.617Z,9.50
2023-03-29T02:40:43.481Z,9.60
2023-03-29T02:49:02.442Z,10.30
2023-03-29T02:52:12.555Z,10.10
2023-03-29T02:55:41.400Z,11.30
2023-03-29T02:58:00.881Z,8.60
2023-03-29T03:01:05.197Z,9.70
2023-03-29T03:03:32.084Z,11.70
2023-03-29T03:05:04.613Z,9.90
2023-03-29T03:08:22.385Z,12.20
2023-03-29T03:10:41.472Z,9.20
2023-03-29T03:15:31.537Z,11.30
2023-03-29T03:23:54.122Z,11.60
2023-03-29T03:27:49.346Z,10.10
2023-03-29T03:37:21.573Z,8.60
2023-03-29T03:40:37.288Z,8.80
2023-03-29T03:42:08.421Z,8.00
2023-03-29T03:44:05.812Z,9.50
2023-03-29T03:45:35.741Z,10.50
2023-03-29T03:48:36.674Z,8.80
2023-03-29T03:50:03.740Z,11.50
2023-03-29T03:53:15.055Z,10.90
2023-03-29T03:56:49.491Z,10.90
2023-03-29T03:59:14.566Z,10.20
2023-03-29T04:04:18.909Z,10.40
2023-03-29T04:06:16.575Z,10.30
2023-03-29T04:07:48.918Z,9.90
2023-03-29T04:09:19.343Z,10.60
2023-03-29T04:15:15.610Z,12.00
2023-03-29T04:17:16.356Z,11.90
2023-03-29T04:21:42.627Z,14.40
2023-03-29T04:23:12.692Z,13.70
2023-03-29T04:24:41.574Z,12.10
2023-03-29T04:34:13.716Z,15.40
2023-03-29T04:38:18.792Z,18.50
2023-03-29T04:42:35.279Z,14.30
2023-03-29T04:45:06.746Z,12.10
2023-03-29T04:48:04.460Z,12.70
2023-03-29T04:51:03.701Z,13.50
2023-03-29T04:53:29.439Z,15.30
2023-03-29T04:58:12.962Z,15.10
2023-03-29T04:59:44.841Z,13.10
2023-03-29T05:02:32.103Z,11.60
2023-03-29T05:05:23.417Z,11.00
2023-03-29T05:06:53.455Z,14.30
2023-03-29T05:08:22.377Z,15.20
2023-03-29T05:09:52.343Z,17.70
2023-03-29T05:12:17.071Z,18.20
2023-03-29T05:13:45.371Z,12.90
2023-03-29T05:15:44.447Z,13.30
2023-03-29T05:17:13.314Z,13.70
2023-03-29T05:19:13.267Z,13.50
2023-03-29T05:21:45.415Z,13.70
2023-03-29T05:23:47.026Z,17.80
2023-03-29T05:27:34.847Z,14.20
2023-03-29T05:30:32.283Z,13.90
2023-03-29T05:32:33.150Z,11.90
2023-03-29T05:34:04.371Z,15.30
2023-03-29T05:38:58.752Z,14.00
2023-03-29T05:42:51.478Z,12.20
2023-03-29T05:44:55.070Z,14.30
2023-03-29T05:47:12.669Z,14.00
2023-03-29T05:48:43.609Z,12.40
2023-03-29T05:50:36.652Z,11.30
2023-03-29T05:52:01.346Z,14.20
2023-03-29T05:56:18.467Z,12.60
2023-03-29T05:58:11.735Z,11.20
2023-03-29T06:02:18.506Z,11.40
2023-03-29T06:04:17.572Z,14.80
2023-03-29T06:07:16.089Z,13.90
2023-03-29T06:08:48.045Z,13.50
2023-03-29T06:11:05.364Z,11.60
2023-03-29T06:17:49.368Z,12.80
2023-03-29T06:19:21.420Z,16.80
2023-03-29T06:20:51.489Z,15.40
2023-03-29T06:24:14.077Z,13.40
2023-03-29T06:27:11.507Z,13.40
2023-03-29T06:30:14.245Z,12.10
2023-03-29T06:32:34.999Z,13.10
2023-03-29T06:35:49.517Z,13.40
2023-03-29T06:40:27.043Z,11.70
2023-03-29T06:42:29.006Z,11.80
2023-03-29T06:45:49.635Z,11.60
2023-03-29T06:50:50.004Z,11.50
2023-03-29T06:52:19.924Z,11.30
2023-03-29T06:53:49.902Z,12.70
2023-03-29T06:55:50.961Z,10.20
2023-03-29T06:57:44.200Z,9.80
2023-03-29T06:58:53.797Z,11.20
2023-03-29T07:04:35.767Z,9.50
2023-03-29T07:06:23.540Z,11.10
2023-03-29T07:09:34.099Z,14.40
2023-03-29T07:11:21.081Z,10.50
2023-03-29T07:12:53.214Z,10.30
2023-03-29T07:17:30.536Z,9.90
2023-03-29T07:22:41.053Z,9.60
2023-03-29T07:24:29.406Z,8.70
2023-03-29T07:30:21.870Z,9.60
2023-03-29T07:37:01.712Z,9.40
2023-03-29T07:39:37.215Z,7.90
2023-03-29T07:46:21.431Z,7.60
2023-03-29T07:47:53.312Z,7.60
2023-03-29T07:49:54.523Z,6.40
2023-03-29T07:51:27.400Z,9.80
2023-03-29T07:52:59.245Z,6.60
2023-03-29T07:56:55.166Z,5.30
2023-03-29T07:58:26.294Z,8.40
2023-03-29T08:04:33.361Z,9.20
2023-03-29T08:07:50.380Z,6.90
2023-03-29T08:09:39.723Z,6.00
2023-03-29T08:11:10.128Z,7.50
2023-03-29T08:12:44.010Z,5.60
2023-03-29T08:16:43.965Z,5.60
2023-03-29T08:20:22.049Z,5.90
2023-03-29T08:22:11.985Z,5.60
2023-03-29T08:25:00.985Z,9.10
2023-03-29T08:28:16.860Z,5.20
2023-03-29T08:30:42.500Z,7.30
2023-03-29T08:35:28.615Z,8.00
2023-03-29T08:40:39.635Z,6.30
2023-03-29T08:42:40.925Z,7.70
2023-03-29T08:45:20.292Z,6.00
2023-03-29T08:46:49.756Z,9.10
2023-03-29T08:52:19.955Z,9.10
2023-03-29T08:56:34.831Z,8.40
2023-03-29T08:58:03.721Z,9.10
2023-03-29T09:01:46.784Z,10.10
2023-03-29T09:03:11.834Z,5.80
2023-03-29T09:05:31.019Z,5.50
2023-03-29T09:07:30.308Z,8.20
2023-03-29T09:09:29.466Z,9.40
2023-03-29T09:12:18.017Z,5.30
2023-03-29T09:14:16.140Z,6.40
2023-03-29T09:17:06.488Z,5.90
2023-03-29T09:18:52.859Z,9.00
2023-03-29T09:20:53.616Z,9.80
2023-03-29T09:26:04.624Z,7.20
2023-03-29T09:27:33.151Z,5.90
2023-03-29T09:29:50.599Z,7.80
2023-03-29T09:31:54.227Z,7.20
2023-03-29T09:36:35.459Z,6.30
2023-03-29T09:38:04.394Z,7.60
2023-03-29T09:41:16.942Z,6.90
2023-03-29T09:43:16.327Z,9.50
2023-03-29T09:44:43.616Z,6.80
2023-03-29T09:47:15.742Z,9.50
2023-03-29T09:54:19.250Z,6.70
2023-03-29T09:55:49.083Z,7.40
2023-03-29T09:57:37.674Z,6.50
2023-03-29T10:01:15.385Z,8.80
2023-03-29T10:02:48.002Z,7.40
2023-03-29T10:05:47.411Z,10.30
2023-03-29T10:13:30.368Z,9.60
2023-03-29T10:22:07.628Z,11.70
2023-03-29T10:25:38.752Z,13.70
2023-03-29T10:29:37.249Z,7.20
2023-03-29T10:32:26.051Z,9.60
2023-03-29T10:33:55.995Z,12.10
2023-03-29T10:37:27.071Z,6.10
2023-03-29T10:41:36.613Z,13.30
2023-03-29T10:45:11.020Z,10.60
2023-03-29T10:48:49.265Z,10.70
2023-03-29T10:50:41.003Z,11.50
2023-03-29T10:54:39.154Z,7.90
2023-03-29T10:58:22.052Z,8.20
2023-03-29T11:01:12.342Z,8.60
2023-03-29T11:03:13.684Z,12.10
2023-03-29T11:05:41.491Z,12.20
2023-03-29T11:07:30.212Z,8.20
2023-03-29T11:14:08.458Z,10.10
2023-03-29T11:22:57.502Z,10.30
2023-03-29T11:25:01.420Z,9.30
2023-03-29T11:27:00.232Z,10.50
2023-03-29T11:29:18.962Z,9.50
2023-03-29T11:30:50.265Z,9.60
2023-03-29T11:33:08.568Z,10.90
2023-03-29T11:34:57.590Z,10.80
2023-03-29T11:36:27.554Z,9.10
2023-03-29T11:38:50.442Z,13.40
2023-03-29T11:40:52.997Z,8.70
2023-03-29T11:41:51.016Z,8.00
2023-03-29T11:42:51.021Z,8.90
2023-03-29T11:49:00.960Z,10.80
2023-03-29T11:54:52.236Z,7.40
2023-03-29T11:56:21.157Z,7.70
2023-03-29T11:57:53.169Z,7.00
2023-03-29T12:00:52.799Z,6.70
2023-03-29T12:02:21.925Z,7.60
2023-03-29T12:05:29.843Z,6.70
2023-03-29T12:08:32.314Z,7.30
2023-03-29T12:12:41.880Z,7.50
2023-03-29T12:16:09.082Z,8.80
2023-03-29T12:18:49.234Z,10.40
2023-03-29T12:20:37.247Z,6.90
2023-03-29T12:22:09.112Z,7.20
2023-03-29T12:25:31.736Z,6.70
2023-03-29T12:28:10.265Z,8.30
2023-03-29T12:30:12.928Z,7.10
2023-03-29T12:36:14.345Z,6.50
2023-03-29T12:41:33.536Z,8.50
2023-03-29T12:45:02.795Z,7.30
2023-03-29T12:48:27.369Z,6.60
2023-03-29T12:50:47.974Z,10.30
2023-03-29T12:56:25.925Z,6.90
2023-03-29T12:57:25.552Z,7.90
2023-03-29T12:58:25.181Z,7.30
2023-03-29T12:59:55.084Z,6.60
2023-03-29T13:01:25.903Z,11.20
2023-03-29T13:02:56.166Z,6.20
2023-03-29T13:05:44.138Z,6.40
2023-03-29T13:08:52.725Z,6.30
2023-03-29T13:16:10.311Z,6.50
2023-03-29T13:22:45.306Z,8.10
2023-03-29T13:34:16.566Z,7.50
2023-03-29T13:36:45.212Z,9.60
2023-03-29T13:39:02.124Z,5.30
2023-03-29T13:41:51.309Z,6.40
2023-03-29T13:48:04.719Z,8.30
2023-03-29T13:51:14.159Z,5.70
2023-03-29T13:52:43.812Z,6.30
2023-03-29T13:54:15.661Z,6.70
2023-03-29T13:55:42.581Z,8.00
2023-03-29T13:57:11.591Z,6.80
2023-03-29T13:59:46.409Z,5.10
2023-03-29T14:01:16.344Z,5.70
2023-03-29T14:04:25.511Z,5.70
2023-03-29T14:11:07.998Z,7.30
2023-03-29T14:16:42.714Z,8.40
2023-03-29T14:21:18.602Z,12.80
2023-03-29T14:23:19.158Z,16.20
2023-03-29T14:25:19.228Z,13.50
2023-03-29T14:28:38.698Z,7.10
2023-03-29T14:31:39.466Z,7.00
2023-03-29T14:34:09.140Z,7.50
2023-03-29T14:36:30.878Z,9.30
2023-03-29T14:39:18.660Z,7.20
2023-03-29T14:41:09.907Z,7.00
2023-03-29T14:48:55.275Z,7.90
2023-03-29T14:50:28.213Z,7.80
2023-03-29T14:54:37.773Z,6.20
2023-03-29T14:57:03.919Z,6.10
2023-03-29T15:00:22.668Z,6.70
2023-03-29T15:02:50.420Z,8.00
2023-03-29T15:05:08.912Z,7.70
2023-03-29T15:06:38.805Z,7.00
2023-03-29T15:10:46.469Z,7.20
2023-03-29T15:12:35.411Z,6.30
2023-03-29T15:18:56.113Z,7.10
2023-03-29T15:20:24.754Z,9.20
2023-03-29T15:27:05.015Z,11.10
2023-03-29T15:28:32.862Z,10.50
2023-03-29T15:31:07.923Z,8.90
2023-03-29T15:35:09.185Z,7.50
2023-03-29T15:41:38.089Z,8.30
2023-03-29T15:43:38.146Z,8.00
2023-03-29T15:47:14.154Z,8.40
2023-03-29T15:52:25.979Z,9.20
2023-03-29T15:55:08.769Z,8.30
2023-03-29T15:57:10.676Z,9.00
2023-03-29T15:59:07.569Z,9.60
2023-03-29T16:01:08.734Z,9.20
2023-03-29T16:03:40.135Z,8.50
2023-03-29T16:05:37.400Z,7.70
2023-03-29T16:09:54.423Z,7.40
2023-03-29T16:11:54.434Z,9.00
2023-03-29T16:13:24.143Z,7.00
2023-03-29T16:14:51.366Z,7.60
2023-03-29T16:16:53.991Z,7.90
2023-03-29T16:18:25.937Z,10.00
2023-03-29T16:21:41.615Z,9.40
2023-03-29T16:27:37.517Z,10.80
2023-03-29T16:29:36.707Z,8.20
2023-03-29T16:34:53.281Z,7.40
2023-03-29T16:36:22.548Z,7.30
2023-03-29T16:41:08.180Z,9.30
2023-03-29T16:45:34.361Z,7.00
2023-03-29T16:49:39.279Z,6.40
2023-03-29T16:51:05.423Z,6.10
2023-03-29T16:56:30.402Z,6.90
2023-03-29T16:58:32.141Z,7.00
2023-03-29T17:08:23.830Z,7.80
2023-03-29T17:11:45.080Z,7.80
2023-03-29T17:14:15.314Z,6.00
2023-03-29T17:16:23.723Z,8.40
2023-03-29T17:20:14.372Z,8.00
2023-03-29T17:22:01.203Z,8.50
2023-03-29T17:25:19.879Z,7.10
2023-03-29T17:27:49.747Z,8.60
2023-03-29T17:29:18.739Z,9.10
2023-03-29T17:30:47.632Z,8.60
2023-03-29T17:33:54.255Z,10.70
2023-03-29T17:37:13.697Z,10.90
2023-03-29T17:40:23.519Z,9.00
2023-03-29T17:41:53.743Z,12.60
2023-03-29T17:43:54.045Z,10.20
2023-03-29T17:45:28.012Z,15.90
2023-03-29T17:48:59.315Z,15.90
2023-03-29T17:51:26.298Z,8.90
2023-03-29T17:57:56.739Z,8.90
2023-03-29T17:59:44.066Z,10.60
2023-03-29T18:01:13.499Z,8.50
2023-03-29T18:02:42.453Z,8.00
2023-03-29T18:07:27.585Z,8.30
2023-03-29T18:09:41.277Z,11.50
2023-03-29T18:12:01.160Z,10.30
2023-03-29T18:13:32.622Z,14.80
2023-03-29T18:15:01.563Z,10.20
2023-03-29T18:17:01.954Z,10.00
2023-03-29T18:23:32.840Z,10.10
2023-03-29T18:25:02.433Z,7.90
2023-03-29T18:27:01.494Z,10.50
2023-03-29T18:30:23.694Z,9.00
2023-03-29T18:32:22.951Z,9.50
2023-03-29T18:34:02.902Z,8.80
2023-03-29T18:37:28.632Z,12.80
2023-03-29T18:40:02.710Z,10.70
2023-03-29T18:42:41.272Z,8.30
2023-03-29T18:48:23.769Z,14.50
2023-03-29T18:49:53.439Z,8.50
2023-03-29T18:52:24.644Z,12.80
2023-03-29T18:53:55.286Z,11.70
2023-03-29T18:55:45.754Z,13.60
2023-03-29T19:00:40.963Z,10.80
2023-03-29T19:05:26.715Z,12.10
2023-03-29T19:08:42.601Z,11.00
2023-03-29T19:11:16.361Z,8.80
2023-03-29T19:13:40.638Z,10.70
2023-03-29T19:16:19.982Z,11.10
2023-03-29T19:22:11.458Z,8.30
2023-03-29T19:28:23.216Z,7.10
2023-03-29T19:29:52.388Z,14.80
2023-03-29T19:31:39.625Z,10.10
2023-03-29T19:35:00.210Z,7.50
2023-03-29T19:38:58.692Z,8.90
2023-03-29T19:45:34.131Z,9.60
2023-03-29T19:47:24.211Z,10.20
2023-03-29T19:54:15.512Z,7.20
2023-03-29T19:56:03.345Z,8.30
2023-03-29T19:59:16.314Z,7.30
2023-03-29T20:02:44.946Z,9.40
2023-03-29T20:04:12.774Z,8.10
2023-03-29T20:09:45.807Z,6.30
2023-03-29T20:16:16.089Z,7.40
2023-03-29T20:18:04.630Z,8.40
2023-03-29T20:20:16.976Z,9.80
2023-03-29T20:22:05.855Z,10.70
2023-03-29T20:27:35.441Z,12.80
2023-03-29T20:30:24.473Z,7.90
2023-03-29T20:33:19.442Z,9.00
2023-03-29T20:35:16.467Z,9.90
2023-03-29T20:40:28.353Z,7.20
2023-03-29T20:44:27.741Z,7.10
2023-03-29T20:47:38.488Z,6.40
2023-03-29T20:50:25.788Z,10.20
2023-03-29T20:53:36.157Z,7.20
2023-03-29T20:55:05.293Z,6.10
2023-03-29T20:56:36.643Z,6.10
2023-03-29T20:58:53.904Z,7.80
2023-03-29T21:00:44.002Z,6.20
2023-03-29T21:02:13.176Z,6.90
2023-03-29T21:07:55.171Z,5.90
2023-03-29T21:09:44.876Z,5.30
2023-03-29T21:12:53.702Z,7.00
2023-03-29T21:15:44.646Z,6.10
2023-03-29T21:23:27.822Z,6.10
2023-03-29T21:25:27.707Z,9.10
2023-03-29T21:27:25.254Z,6.90
2023-03-29T21:29:08.107Z,7.80
2023-03-29T21:37:03.288Z,6.50
2023-03-29T21:39:00.396Z,5.90
2023-03-29T21:41:04.515Z,7.10
2023-03-29T21:43:33.420Z,7.00
2023-03-29T21:45:02.182Z,7.30
2023-03-29T21:50:26.020Z,7.60
2023-03-29T21:52:25.944Z,6.40
2023-03-29T21:53:58.228Z,5.10
2023-03-29T21:57:10.055Z,5.80
2023-03-29T21:59:50.382Z,5.20
2023-03-29T22:02:11.199Z,5.50
2023-03-29T22:05:46.994Z,5.60
2023-03-29T22:15:03.041Z,8.00
2023-03-29T22:17:33.961Z,5.30
2023-03-29T22:19:26.296Z,6.60
2023-03-29T22:22:45.016Z,7.80
2023-03-29T22:26:06.246Z,7.50
2023-03-29T22:27:54.470Z,5.10
2023-03-29T22:33:43.514Z,6.20
2023-03-29T22:37:55.900Z,8.30
2023-03-29T22:39:25.854Z,6.30
2023-03-29T22:43:54.820Z,9.00
2023-03-29T22:45:26.653Z,6.50
2023-03-29T22:48:48.789Z,8.90
2023-03-29T22:49:49.527Z,5.30
2023-03-29T22:50:46.809Z,8.50
2023-03-29T22:52:36.472Z,6.10
2023-03-29T22:53:36.495Z,6.70
2023-03-29T22:54:36.450Z,7.80
2023-03-29T22:55:36.456Z,7.40
2023-03-29T22:58:08.494Z,7.10
2023-03-29T23:02:19.744Z,5.20
2023-03-29T23:05:19.203Z,7.20
2023-03-29T23:06:59.083Z,6.80
2023-03-29T23:12:35.467Z,9.60
2023-03-29T23:14:57.420Z,7.70
2023-03-29T23:16:48.648Z,6.50
2023-03-29T23:18:19.826Z,6.60
2023-03-29T23:22:25.509Z,4.70
2023-03-29T23:25:15.539Z,6.40
2023-03-29T23:27:34.392Z,7.60
2023-03-29T23:29:19.767Z,5.40
2023-03-29T23:30:47.553Z,8.90
2023-03-29T23:32:18.405Z,7.20
2023-03-29T23:35:45.304Z,7.00
2023-03-29T23:38:39.020Z,5.10
2023-03-29T23:42:45.432Z,7.20
2023-03-29T23:44:48.355Z,6.80
2023-03-29T23:46:41.459Z,7.10
2023-03-29T23:48:37.743Z,8.50
2023-03-29T23:50:25.688Z,7.00
2023-03-29T23:52:10.714Z,6.60
2023-03-29T23:55:40.448Z,6.60
